Orbital elements of BREEZE-M DEB
| Launched | 19 May 2011 |
| Flight ended | – |
| Launch site | Tyuratam Missile and Space Center, Kazakhstan (Also known as Baikonur Cosmodrome) |
| Owner | Commonwealth of Independent States (former USSR) |
| NORAD ID | 37604 |
| Alternative names |
TANK |
| Date fetched |
Epoch osculation |
Inc. [°] |
Ecc. | RA asc node [hr] |
Arg Peri. [°] |
Mean anom [°] |
Mean motion [rev/day] |
Abs. mag |
| Date fetched |
Epoch osculation |
Inc. [°] |
Ecc. | RA asc node [hr] |
Arg Peri. [°] |
Mean anom [°] |
Mean motion [rev/day] |
Abs. mag |
| 2026 May 01 17:56 | 2026 Apr 29 09:21:38 | 49.3333 | 0.58100 | 5.5280 | 33.1353 | 352.4796 | 4.27662 | 4.743 |
| 2026 Apr 30 17:56 | 2026 Apr 29 09:21:38 | 49.3333 | 0.58100 | 5.5280 | 33.1353 | 352.4796 | 4.27662 | 4.743 |
| 2026 Apr 29 17:57 | 2026 Apr 24 00:17:36 | 49.3322 | 0.58103 | 5.7388 | 30.3987 | 352.4796 | 4.27662 | 4.743 |
| 2026 Apr 28 17:56 | 2026 Apr 24 00:17:36 | 49.3322 | 0.58103 | 5.7388 | 30.3987 | 352.4796 | 4.27662 | 4.743 |
| 2026 Apr 27 17:58 | 2026 Apr 24 00:17:36 | 49.3322 | 0.58103 | 5.7388 | 30.3987 | 352.4796 | 4.27662 | 4.743 |
| 2026 Apr 26 17:58 | 2026 Apr 24 00:17:36 | 49.3322 | 0.58103 | 5.7388 | 30.3987 | 352.4796 | 4.27662 | 4.743 |
| 2026 Apr 25 17:58 | 2026 Apr 24 00:17:36 | 49.3322 | 0.58103 | 5.7388 | 30.3987 | 352.4796 | 4.27662 | 4.743 |
| 2026 Apr 24 17:59 | 2026 Apr 24 00:17:36 | 49.3322 | 0.58103 | 5.7388 | 30.3987 | 352.4796 | 4.27662 | 4.743 |
| 2026 Apr 23 17:57 | 2026 Apr 19 08:03:18 | 49.3320 | 0.58104 | 5.9221 | 28.0174 | 352.4796 | 4.27662 | 4.743 |
| 2026 Apr 22 17:57 | 2026 Apr 19 08:03:18 | 49.3320 | 0.58104 | 5.9221 | 28.0174 | 352.4796 | 4.27662 | 4.743 |
| 2026 Apr 21 17:57 | 2026 Apr 19 08:03:18 | 49.3320 | 0.58104 | 5.9221 | 28.0174 | 352.4796 | 4.27662 | 4.743 |
| 2026 Apr 20 17:57 | 2026 Apr 19 08:03:18 | 49.3320 | 0.58104 | 5.9221 | 28.0174 | 352.4796 | 4.27662 | 4.743 |
| 2026 Apr 19 17:58 | 2026 Apr 19 08:03:18 | 49.3320 | 0.58104 | 5.9221 | 28.0174 | 352.4796 | 4.27662 | 4.743 |
| 2026 Apr 18 17:56 | 2026 Apr 13 06:08:22 | 49.3291 | 0.58107 | 6.1603 | 24.9226 | 352.4796 | 4.27662 | 4.743 |
| 2026 Apr 16 17:57 | 2026 Apr 13 06:08:22 | 49.3291 | 0.58107 | 6.1603 | 24.9226 | 352.4796 | 4.27662 | 4.743 |
| 2026 Apr 14 17:57 | 2026 Apr 13 06:08:22 | 49.3291 | 0.58107 | 6.1603 | 24.9226 | 352.4796 | 4.27662 | 4.743 |
| 2026 Apr 13 17:57 | 2026 Apr 13 06:08:22 | 49.3291 | 0.58107 | 6.1603 | 24.9226 | 352.4796 | 4.27662 | 4.743 |
| 2026 Apr 12 17:57 | 2026 Apr 07 04:13:00 | 49.3267 | 0.58112 | 6.3985 | 21.8291 | 352.4796 | 4.27662 | 4.743 |
| 2026 Apr 11 17:57 | 2026 Apr 07 04:13:00 | 49.3267 | 0.58112 | 6.3985 | 21.8291 | 352.4796 | 4.27662 | 4.743 |
| 2026 Apr 10 17:58 | 2026 Apr 07 04:13:00 | 49.3267 | 0.58112 | 6.3985 | 21.8291 | 352.4796 | 4.27662 | 4.743 |
| 2026 Apr 09 18:01 | 2026 Apr 07 04:13:00 | 49.3267 | 0.58112 | 6.3985 | 21.8291 | 352.4796 | 4.27662 | 4.743 |
| 2026 Apr 08 17:57 | 2026 Apr 07 04:13:00 | 49.3267 | 0.58112 | 6.3985 | 21.8291 | 352.4796 | 4.27662 | 4.743 |
| 2026 Apr 07 17:57 | 2026 Apr 02 00:44:14 | 49.3244 | 0.58116 | 6.6001 | 19.2121 | 352.4796 | 4.27662 | 4.743 |
| 2026 Apr 06 17:57 | 2026 Apr 02 00:44:14 | 49.3244 | 0.58116 | 6.6001 | 19.2121 | 352.4796 | 4.27662 | 4.743 |
| 2026 Apr 05 17:56 | 2026 Apr 02 00:44:14 | 49.3244 | 0.58116 | 6.6001 | 19.2121 | 352.4796 | 4.27662 | 4.743 |
| 2026 Apr 04 17:57 | 2026 Apr 02 00:44:14 | 49.3244 | 0.58116 | 6.6001 | 19.2121 | 352.4796 | 4.27662 | 4.743 |